sensor_id;sensor_type;location;lat;lon;timestamp;pressure;altitude;pressure_sealevel;temperature;humidity
49397;BME280;35615;41.410;2.194;2023-05-21T00:01:45;101165.63;;;22.01;44.34
49397;BME280;35615;41.410;2.194;2023-05-21T00:04:14;101160.34;;;22.04;43.98
49397;BME280;35615;41.410;2.194;2023-05-21T00:06:41;101156.88;;;22.01;44.28
49397;BME280;35615;41.410;2.194;2023-05-21T00:09:09;101159.50;;;21.93;44.62
49397;BME280;35615;41.410;2.194;2023-05-21T00:11:38;101153.38;;;21.91;44.62
49397;BME280;35615;41.410;2.194;2023-05-21T00:14:07;101155.13;;;21.92;44.48
49397;BME280;35615;41.410;2.194;2023-05-21T00:16:34;101152.50;;;21.92;44.65
49397;BME280;35615;41.410;2.194;2023-05-21T00:19:03;101150.78;;;21.78;45.07
49397;BME280;35615;41.410;2.194;2023-05-21T00:21:30;101149.00;;;21.80;45.23
49397;BME280;35615;41.410;2.194;2023-05-21T00:24:01;101143.75;;;21.80;45.26
49397;BME280;35615;41.410;2.194;2023-05-21T00:26:34;101137.63;;;21.76;45.01
49397;BME280;35615;41.410;2.194;2023-05-21T00:29:05;101137.63;;;21.74;45.11
49397;BME280;35615;41.410;2.194;2023-05-21T00:31:33;101131.50;;;21.66;45.79
49397;BME280;35615;41.410;2.194;2023-05-21T00:34:01;101132.38;;;21.67;45.63
49397;BME280;35615;41.410;2.194;2023-05-21T00:36:28;101138.50;;;21.69;45.25
49397;BME280;35615;41.410;2.194;2023-05-21T00:38:56;101135.88;;;21.61;45.45
49397;BME280;35615;41.410;2.194;2023-05-21T00:41:24;101133.28;;;21.64;45.36
49397;BME280;35615;41.410;2.194;2023-05-21T00:43:52;101128.00;;;21.67;45.67
49397;BME280;35615;41.410;2.194;2023-05-21T00:46:20;101136.78;;;21.63;45.66
49397;BME280;35615;41.410;2.194;2023-05-21T00:48:49;101135.03;;;21.64;45.38
49397;BME280;35615;41.410;2.194;2023-05-21T00:51:17;101123.63;;;21.57;46.06
49397;BME280;35615;41.410;2.194;2023-05-21T00:53:47;101122.75;;;21.57;45.71
49397;BME280;35615;41.410;2.194;2023-05-21T00:56:15;101123.63;;;21.57;45.60
49397;BME280;35615;41.410;2.194;2023-05-21T00:58:46;101121.88;;;21.55;45.91
49397;BME280;35615;41.410;2.194;2023-05-21T01:01:13;101123.66;;;21.51;45.77
49397;BME280;35615;41.410;2.194;2023-05-21T01:03:42;101129.78;;;21.53;46.23
49397;BME280;35615;41.410;2.194;2023-05-21T01:06:12;101118.38;;;21.54;46.38
49397;BME280;35615;41.410;2.194;2023-05-21T01:08:40;101124.50;;;21.55;46.21
49397;BME280;35615;41.410;2.194;2023-05-21T01:11:08;101113.13;;;21.56;45.74
49397;BME280;35615;41.410;2.194;2023-05-21T01:13:43;101116.63;;;21.55;46.04
49397;BME280;35615;41.410;2.194;2023-05-21T01:16:15;101111.38;;;21.52;46.05
49397;BME280;35615;41.410;2.194;2023-05-21T01:18:43;101108.72;;;21.50;46.03
49397;BME280;35615;41.410;2.194;2023-05-21T01:21:13;101106.97;;;21.46;46.52
49397;BME280;35615;41.410;2.194;2023-05-21T01:23:45;101103.50;;;21.44;46.65
49397;BME280;35615;41.410;2.194;2023-05-21T01:26:13;101109.63;;;21.34;46.27
49397;BME280;35615;41.410;2.194;2023-05-21T01:28:40;101102.63;;;21.34;46.27
49397;BME280;35615;41.410;2.194;2023-05-21T01:31:22;101109.63;;;21.29;46.61
49397;BME280;35615;41.410;2.194;2023-05-21T01:33:55;101104.34;;;21.20;46.23
49397;BME280;35615;41.410;2.194;2023-05-21T01:36:29;101108.72;;;21.23;46.30
49397;BME280;35615;41.410;2.194;2023-05-21T01:39:06;101105.19;;;21.13;46.45
49397;BME280;35615;41.410;2.194;2023-05-21T01:41:37;101099.09;;;21.18;46.04
49397;BME280;35615;41.410;2.194;2023-05-21T01:44:08;101101.69;;;21.15;46.56
49397;BME280;35615;41.410;2.194;2023-05-21T01:46:37;101103.47;;;21.18;46.29
49397;BME280;35615;41.410;2.194;2023-05-21T01:49:06;101099.06;;;21.14;46.37
49397;BME280;35615;41.410;2.194;2023-05-21T01:51:35;101103.44;;;21.13;46.55
49397;BME280;35615;41.410;2.194;2023-05-21T01:54:05;101096.44;;;21.17;46.55
49397;BME280;35615;41.410;2.194;2023-05-21T01:56:32;101099.06;;;21.15;46.16
49397;BME280;35615;41.410;2.194;2023-05-21T01:59:00;101099.06;;;21.14;46.46
49397;BME280;35615;41.410;2.194;2023-05-21T02:01:27;101095.59;;;21.18;46.48
49397;BME280;35615;41.410;2.194;2023-05-21T02:03:57;101094.72;;;21.08;47.00
49397;BME280;35615;41.410;2.194;2023-05-21T02:06:24;101091.19;;;21.11;46.59
49397;BME280;35615;41.410;2.194;2023-05-21T02:08:54;101086.81;;;21.11;46.74
49397;BME280;35615;41.410;2.194;2023-05-21T02:11:22;101081.56;;;21.08;46.88
49397;BME280;35615;41.410;2.194;2023-05-21T02:13:49;101081.56;;;21.11;46.96
49397;BME280;35615;41.410;2.194;2023-05-21T02:16:19;101074.56;;;21.10;47.07
49397;BME280;35615;41.410;2.194;2023-05-21T02:18:48;101075.44;;;21.11;46.89
49397;BME280;35615;41.410;2.194;2023-05-21T02:21:23;101076.31;;;21.07;47.43
49397;BME280;35615;41.410;2.194;2023-05-21T02:23:50;101059.69;;;21.09;47.22
49397;BME280;35615;41.410;2.194;2023-05-21T02:26:17;101061.41;;;21.10;46.96
49397;BME280;35615;41.410;2.194;2023-05-21T02:28:44;101060.56;;;21.10;47.07
49397;BME280;35615;41.410;2.194;2023-05-21T02:31:12;101056.16;;;21.09;46.99
49397;BME280;35615;41.410;2.194;2023-05-21T02:33:41;101064.91;;;21.02;47.08
49397;BME280;35615;41.410;2.194;2023-05-21T02:36:08;101062.31;;;20.97;47.34
49397;BME280;35615;41.410;2.194;2023-05-21T02:38:39;101064.06;;;20.95;47.29
49397;BME280;35615;41.410;2.194;2023-05-21T02:41:11;101061.41;;;20.94;47.68
49397;BME280;35615;41.410;2.194;2023-05-21T02:43:39;101065.78;;;20.88;47.54
49397;BME280;35615;41.410;2.194;2023-05-21T02:46:06;101057.03;;;20.85;47.31
49397;BME280;35615;41.410;2.194;2023-05-21T02:48:34;101061.41;;;20.80;47.79
49397;BME280;35615;41.410;2.194;2023-05-21T02:51:03;101064.91;;;20.82;47.56
49397;BME280;35615;41.410;2.194;2023-05-21T02:53:30;101062.28;;;20.79;47.81
49397;BME280;35615;41.410;2.194;2023-05-21T02:55:57;101057.91;;;20.76;47.66
49397;BME280;35615;41.410;2.194;2023-05-21T02:58:24;101056.16;;;20.75;47.95
49397;BME280;35615;41.410;2.194;2023-05-21T03:01:01;101051.75;;;20.73;47.62
49397;BME280;35615;41.410;2.194;2023-05-21T03:03:28;101048.25;;;20.69;47.88
49397;BME280;35615;41.410;2.194;2023-05-21T03:05:56;101045.63;;;20.68;47.82
49397;BME280;35615;41.410;2.194;2023-05-21T03:08:24;101038.63;;;20.67;48.00
49397;BME280;35615;41.410;2.194;2023-05-21T03:10:52;101043.00;;;20.63;47.94
49397;BME280;35615;41.410;2.194;2023-05-21T03:13:19;101054.34;;;20.60;48.36
49397;BME280;35615;41.410;2.194;2023-05-21T03:15:47;101045.59;;;20.62;48.28
49397;BME280;35615;41.410;2.194;2023-05-21T03:18:15;101047.34;;;20.61;47.92
49397;BME280;35615;41.410;2.194;2023-05-21T03:20:42;101040.38;;;20.65;48.27
49397;BME280;35615;41.410;2.194;2023-05-21T03:23:15;101037.72;;;20.60;48.28
49397;BME280;35615;41.410;2.194;2023-05-21T03:25:45;101035.13;;;20.57;48.43
49397;BME280;35615;41.410;2.194;2023-05-21T03:28:13;101046.47;;;20.59;48.22
49397;BME280;35615;41.410;2.194;2023-05-21T03:30:46;101039.50;;;20.56;48.25
49397;BME280;35615;41.410;2.194;2023-05-21T03:33:35;101040.38;;;20.52;48.18
49397;BME280;35615;41.410;2.194;2023-05-21T03:36:16;101046.50;;;20.51;48.44
49397;BME280;35615;41.410;2.194;2023-05-21T03:38:43;101038.59;;;20.50;48.35
49397;BME280;35615;41.410;2.194;2023-05-21T03:41:12;101039.47;;;20.49;48.40
49397;BME280;35615;41.410;2.194;2023-05-21T03:43:41;101042.97;;;20.46;48.32
49397;BME280;35615;41.410;2.194;2023-05-21T03:46:08;101036.78;;;20.35;48.60
49397;BME280;35615;41.410;2.194;2023-05-21T03:48:55;101042.03;;;20.29;48.90
49397;BME280;35615;41.410;2.194;2023-05-21T03:51:29;101046.41;;;20.31;49.01
49397;BME280;35615;41.410;2.194;2023-05-21T03:53:58;101042.03;;;20.35;48.85
49397;BME280;35615;41.410;2.194;2023-05-21T03:56:26;101045.53;;;20.34;48.81
49397;BME280;35615;41.410;2.194;2023-05-21T03:58:53;101049.03;;;20.30;49.23
49397;BME280;35615;41.410;2.194;2023-05-21T04:01:20;101051.63;;;20.28;49.35
49397;BME280;35615;41.410;2.194;2023-05-21T04:03:50;101059.47;;;20.22;49.30
49397;BME280;35615;41.410;2.194;2023-05-21T04:06:21;101051.56;;;20.15;49.76
49397;BME280;35615;41.410;2.194;2023-05-21T04:08:49;101054.19;;;20.15;49.47
49397;BME280;35615;41.410;2.194;2023-05-21T04:11:17;101062.06;;;20.10;49.68
49397;BME280;35615;41.410;2.194;2023-05-21T04:13:45;101066.41;;;20.05;49.75
49397;BME280;35615;41.410;2.194;2023-05-21T04:16:14;101064.59;;;19.95;50.14
49397;BME280;35615;41.410;2.194;2023-05-21T04:18:45;101063.72;;;19.90;50.12
49397;BME280;35615;41.410;2.194;2023-05-21T04:21:14;101073.38;;;19.95;49.77
49397;BME280;35615;41.410;2.194;2023-05-21T04:23:44;101065.47;;;19.91;49.80
49397;BME280;35615;41.410;2.194;2023-05-21T04:26:35;101063.72;;;19.94;49.86
49397;BME280;35615;41.410;2.194;2023-05-21T04:29:04;101061.09;;;19.87;50.15
49397;BME280;35615;41.410;2.194;2023-05-21T04:31:31;101060.22;;;19.91;49.95
49397;BME280;35615;41.410;2.194;2023-05-21T04:34:01;101061.09;;;19.88;50.06
49397;BME280;35615;41.410;2.194;2023-05-21T04:36:28;101068.09;;;19.91;50.07
49397;BME280;35615;41.410;2.194;2023-05-21T04:38:55;101064.59;;;19.87;50.04
49397;BME280;35615;41.410;2.194;2023-05-21T04:41:23;101059.34;;;19.84;50.02
49397;BME280;35615;41.410;2.194;2023-05-21T04:43:50;101061.09;;;19.88;49.94
49397;BME280;35615;41.410;2.194;2023-05-21T04:46:25;101066.34;;;19.91;50.16
49397;BME280;35615;41.410;2.194;2023-05-21T04:48:53;101060.22;;;19.85;50.27
49397;BME280;35615;41.410;2.194;2023-05-21T04:51:23;101060.22;;;19.85;49.86
49397;BME280;35615;41.410;2.194;2023-05-21T04:53:52;101054.97;;;19.92;49.74
49397;BME280;35615;41.410;2.194;2023-05-21T04:56:20;101056.66;;;19.81;49.77
49397;BME280;35615;41.410;2.194;2023-05-21T04:58:53;101058.41;;;19.76;49.85
49397;BME280;35615;41.410;2.194;2023-05-21T05:01:20;101055.78;;;19.79;50.02
49397;BME280;35615;41.410;2.194;2023-05-21T05:03:53;101057.53;;;19.80;49.65
49397;BME280;35615;41.410;2.194;2023-05-21T05:06:20;101058.47;;;19.88;49.61
49397;BME280;35615;41.410;2.194;2023-05-21T05:08:48;101069.81;;;19.84;50.07
49397;BME280;35615;41.410;2.194;2023-05-21T05:11:19;101074.22;;;19.91;49.89
49397;BME280;35615;41.410;2.194;2023-05-21T05:13:51;101070.72;;;19.91;49.50
49397;BME280;35615;41.410;2.194;2023-05-21T05:16:19;101072.47;;;19.92;49.46
49397;BME280;35615;41.410;2.194;2023-05-21T05:18:57;101073.34;;;19.92;49.57
49397;BME280;35615;41.410;2.194;2023-05-21T05:21:25;101074.22;;;19.94;49.69
49397;BME280;35615;41.410;2.194;2023-05-21T05:23:52;101070.72;;;19.92;49.64
49397;BME280;35615;41.410;2.194;2023-05-21T05:26:25;101074.22;;;19.94;49.55
49397;BME280;35615;41.410;2.194;2023-05-21T05:28:53;101069.84;;;19.95;49.58
49397;BME280;35615;41.410;2.194;2023-05-21T05:31:22;101071.63;;;19.97;49.19
49397;BME280;35615;41.410;2.194;2023-05-21T05:33:51;101067.22;;;19.93;49.25
49397;BME280;35615;41.410;2.194;2023-05-21T05:36:20;101073.31;;;19.89;49.53
49397;BME280;35615;41.410;2.194;2023-05-21T05:38:48;101074.22;;;19.94;49.69
49397;BME280;35615;41.410;2.194;2023-05-21T05:41:16;101069.84;;;19.93;49.17
49397;BME280;35615;41.410;2.194;2023-05-21T05:43:43;101062.88;;;19.97;49.00
49397;BME280;35615;41.410;2.194;2023-05-21T05:46:10;101076.00;;;20.01;48.91
49397;BME280;35615;41.410;2.194;2023-05-21T05:48:38;101067.31;;;20.07;49.25
49397;BME280;35615;41.410;2.194;2023-05-21T05:51:05;101069.06;;;20.08;48.94
49397;BME280;35615;41.410;2.194;2023-05-21T05:53:32;101070.75;;;20.06;49.06
49397;BME280;35615;41.410;2.194;2023-05-21T05:55:59;101065.56;;;20.08;48.85
49397;BME280;35615;41.410;2.194;2023-05-21T05:58:29;101062.06;;;20.10;48.73
49397;BME280;35615;41.410;2.194;2023-05-21T06:01:11;101067.31;;;20.09;49.15
49397;BME280;35615;41.410;2.194;2023-05-21T06:03:39;101072.56;;;20.12;48.83
49397;BME280;35615;41.410;2.194;2023-05-21T06:06:15;101080.44;;;20.12;49.03
49397;BME280;35615;41.410;2.194;2023-05-21T06:08:43;101069.84;;;19.93;48.98
49397;BME280;35615;41.410;2.194;2023-05-21T06:11:11;101075.06;;;19.90;48.75
49397;BME280;35615;41.410;2.194;2023-05-21T06:13:38;101082.06;;;19.94;48.81
49397;BME280;35615;41.410;2.194;2023-05-21T06:16:07;101083.81;;;19.86;49.06
49397;BME280;35615;41.410;2.194;2023-05-21T06:18:37;101082.03;;;19.84;49.20
49397;BME280;35615;41.410;2.194;2023-05-21T06:21:04;101082.88;;;19.80;49.02
49397;BME280;35615;41.410;2.194;2023-05-21T06:23:31;101087.25;;;19.78;49.52
49397;BME280;35615;41.410;2.194;2023-05-21T06:25:59;101085.50;;;19.81;49.33
49397;BME280;35615;41.410;2.194;2023-05-21T06:28:26;101088.13;;;19.80;49.48
49397;BME280;35615;41.410;2.194;2023-05-21T06:30:54;101090.75;;;19.80;49.36
49397;BME280;35615;41.410;2.194;2023-05-21T06:33:21;101075.00;;;19.73;49.27
49397;BME280;35615;41.410;2.194;2023-05-21T06:35:54;101079.34;;;19.73;49.25
49397;BME280;35615;41.410;2.194;2023-05-21T06:38:22;101077.63;;;19.75;49.09
49397;BME280;35615;41.410;2.194;2023-05-21T06:40:49;101089.84;;;19.75;49.32
49397;BME280;35615;41.410;2.194;2023-05-21T06:43:32;101083.69;;;19.72;49.13
49397;BME280;35615;41.410;2.194;2023-05-21T06:46:18;101097.72;;;19.75;49.30
49397;BME280;35615;41.410;2.194;2023-05-21T06:48:45;101091.63;;;19.82;48.92
49397;BME280;35615;41.410;2.194;2023-05-21T06:51:14;101086.44;;;19.88;49.15
49397;BME280;35615;41.410;2.194;2023-05-21T06:53:42;101092.56;;;19.94;49.18
49397;BME280;35615;41.410;2.194;2023-05-21T06:56:09;101099.59;;;19.98;48.61
49397;BME280;35615;41.410;2.194;2023-05-21T06:58:42;101101.38;;;20.02;48.62
49397;BME280;35615;41.410;2.194;2023-05-21T07:01:15;101090.03;;;20.13;48.55
49397;BME280;35615;41.410;2.194;2023-05-21T07:03:45;101092.69;;;20.17;48.49
49397;BME280;35615;41.410;2.194;2023-05-21T07:06:12;101097.09;;;20.24;48.09
49397;BME280;35615;41.410;2.194;2023-05-21T07:08:49;101103.22;;;20.25;47.85
49397;BME280;35615;41.410;2.194;2023-05-21T07:11:16;101102.38;;;20.30;47.70
49397;BME280;35615;41.410;2.194;2023-05-21T07:13:44;101095.38;;;20.39;47.62
49397;BME280;35615;41.410;2.194;2023-05-21T07:16:12;101100.69;;;20.43;47.43
49397;BME280;35615;41.410;2.194;2023-05-21T07:18:41;101108.56;;;20.46;47.47
49397;BME280;35615;41.410;2.194;2023-05-21T07:21:08;101101.63;;;20.57;47.19
49397;BME280;35615;41.410;2.194;2023-05-21T07:23:36;101108.63;;;20.69;47.59
49397;BME280;35615;41.410;2.194;2023-05-21T07:26:03;101103.41;;;20.63;47.48
49397;BME280;35615;41.410;2.194;2023-05-21T07:28:31;101103.41;;;20.80;46.74
49397;BME280;35615;41.410;2.194;2023-05-21T07:31:03;101106.94;;;20.88;46.50
49397;BME280;35615;41.410;2.194;2023-05-21T07:33:36;101107.84;;;20.96;46.40
49397;BME280;35615;41.410;2.194;2023-05-21T07:36:08;101109.56;;;21.03;46.61
49397;BME280;35615;41.410;2.194;2023-05-21T07:38:35;101108.69;;;21.01;45.99
49397;BME280;35615;41.410;2.194;2023-05-21T07:41:04;101113.97;;;21.15;45.99
49397;BME280;35615;41.410;2.194;2023-05-21T07:43:31;101113.09;;;21.22;45.90
49397;BME280;35615;41.410;2.194;2023-05-21T07:45:59;101120.16;;;21.29;45.94
49397;BME280;35615;41.410;2.194;2023-05-21T07:48:28;101115.75;;;21.37;46.17
49397;BME280;35615;41.410;2.194;2023-05-21T07:50:59;101114.88;;;21.43;45.98
49397;BME280;35615;41.410;2.194;2023-05-21T07:53:27;101110.50;;;21.51;45.72
49397;BME280;35615;41.410;2.194;2023-05-21T07:56:03;101105.22;;;21.62;45.59
49397;BME280;35615;41.410;2.194;2023-05-21T07:58:31;101109.59;;;21.69;46.06
49397;BME280;35615;41.410;2.194;2023-05-21T08:01:01;101110.47;;;21.60;46.64
49397;BME280;35615;41.410;2.194;2023-05-21T08:03:29;101115.72;;;21.69;46.52
49397;BME280;35615;41.410;2.194;2023-05-21T08:05:57;101117.44;;;21.86;46.83
49397;BME280;35615;41.410;2.194;2023-05-21T08:08:25;101116.53;;;22.08;47.27
49397;BME280;35615;41.410;2.194;2023-05-21T08:10:59;101114.75;;;22.16;47.45
49397;BME280;35615;41.410;2.194;2023-05-21T08:13:33;101113.84;;;22.25;47.82
49397;BME280;35615;41.410;2.194;2023-05-21T08:16:02;101120.91;;;22.14;49.29
49397;BME280;35615;41.410;2.194;2023-05-21T08:18:29;101119.97;;;22.31;48.80
49397;BME280;35615;41.410;2.194;2023-05-21T08:20:59;101128.69;;;22.44;49.59
49397;BME280;35615;41.410;2.194;2023-05-21T08:23:27;101127.81;;;22.36;49.84
49397;BME280;35615;41.410;2.194;2023-05-21T08:25:57;101123.41;;;22.46;50.20
49397;BME280;35615;41.410;2.194;2023-05-21T08:28:29;101124.25;;;22.55;50.28
49397;BME280;35615;41.410;2.194;2023-05-21T08:30:58;101125.09;;;22.62;50.04
49397;BME280;35615;41.410;2.194;2023-05-21T08:33:26;101121.47;;;22.84;50.25
49397;BME280;35615;41.410;2.194;2023-05-21T08:35:53;101121.50;;;22.72;50.76
49397;BME280;35615;41.410;2.194;2023-05-21T08:38:30;101114.22;;;23.14;49.43
49397;BME280;35615;41.410;2.194;2023-05-21T08:41:15;101121.13;;;23.30;49.68
49397;BME280;35615;41.410;2.194;2023-05-21T08:43:46;101119.88;;;23.75;49.03
49397;BME280;35615;41.410;2.194;2023-05-21T08:46:18;101120.97;;;23.52;49.70
49397;BME280;35615;41.410;2.194;2023-05-21T08:48:47;101130.50;;;23.68;49.77
49397;BME280;35615;41.410;2.194;2023-05-21T08:51:16;101118.16;;;23.73;49.72
49397;BME280;35615;41.410;2.194;2023-05-21T08:53:47;101124.84;;;24.01;48.78
49397;BME280;35615;41.410;2.194;2023-05-21T08:56:17;101122.56;;;23.69;47.87
49397;BME280;35615;41.410;2.194;2023-05-21T08:58:48;101134.50;;;24.04;47.04
49397;BME280;35615;41.410;2.194;2023-05-21T09:01:18;101125.03;;;24.60;46.07
49397;BME280;35615;41.410;2.194;2023-05-21T09:03:56;101130.41;;;24.55;46.60
49397;BME280;35615;41.410;2.194;2023-05-21T09:06:34;101121.97;;;24.90;45.88
49397;BME280;35615;41.410;2.194;2023-05-21T09:09:08;101130.09;;;24.77;45.75
49397;BME280;35615;41.410;2.194;2023-05-21T09:11:42;101126.44;;;24.87;46.15
49397;BME280;35615;41.410;2.194;2023-05-21T09:14:10;101127.88;;;25.09;45.57
49397;BME280;35615;41.410;2.194;2023-05-21T09:17:00;101127.59;;;25.78;44.58
49397;BME280;35615;41.410;2.194;2023-05-21T09:19:28;101119.00;;;26.12;43.57
49397;BME280;35615;41.410;2.194;2023-05-21T09:22:02;101125.63;;;25.90;43.00
49397;BME280;35615;41.410;2.194;2023-05-21T09:24:32;101120.63;;;26.19;42.38
49397;BME280;35615;41.410;2.194;2023-05-21T09:27:05;101124.00;;;26.27;42.79
49397;BME280;35615;41.410;2.194;2023-05-21T09:29:34;101126.81;;;26.20;41.99
49397;BME280;35615;41.410;2.194;2023-05-21T09:32:05;101115.03;;;26.33;41.18
49397;BME280;35615;41.410;2.194;2023-05-21T09:34:36;101124.19;;;26.18;41.07
49397;BME280;35615;41.410;2.194;2023-05-21T09:37:05;101122.19;;;25.85;40.36
49397;BME280;35615;41.410;2.194;2023-05-21T09:39:42;101126.50;;;25.90;40.58
49397;BME280;35615;41.410;2.194;2023-05-21T09:42:10;101125.06;;;25.71;40.23
49397;BME280;35615;41.410;2.194;2023-05-21T09:44:37;101124.97;;;25.77;40.40
49397;BME280;35615;41.410;2.194;2023-05-21T09:47:04;101125.25;;;25.62;40.55
49397;BME280;35615;41.410;2.194;2023-05-21T09:49:33;101124.78;;;25.88;40.54
49397;BME280;35615;41.410;2.194;2023-05-21T09:52:03;101118.44;;;25.96;40.50
49397;BME280;35615;41.410;2.194;2023-05-21T09:54:33;101132.16;;;26.15;40.51
49397;BME280;35615;41.410;2.194;2023-05-21T09:57:01;101127.53;;;26.28;40.33
49397;BME280;35615;41.410;2.194;2023-05-21T09:59:37;101131.00;;;26.30;40.04
49397;BME280;35615;41.410;2.194;2023-05-21T10:02:24;101135.44;;;26.29;39.11
49397;BME280;35615;41.410;2.194;2023-05-21T10:04:52;101135.25;;;26.79;39.75
49397;BME280;35615;41.410;2.194;2023-05-21T10:07:27;101136.13;;;26.79;39.14
49397;BME280;35615;41.410;2.194;2023-05-21T10:09:56;101133.41;;;26.82;40.05
49397;BME280;35615;41.410;2.194;2023-05-21T10:12:24;101134.72;;;27.03;39.64
49397;BME280;35615;41.410;2.194;2023-05-21T10:15:00;101135.84;;;26.53;39.47
49397;BME280;35615;41.410;2.194;2023-05-21T10:17:29;101135.38;;;26.74;40.15
49397;BME280;35615;41.410;2.194;2023-05-21T10:19:58;101138.03;;;27.13;39.04
49397;BME280;35615;41.410;2.194;2023-05-21T10:22:26;101135.50;;;26.68;39.57
49397;BME280;35615;41.410;2.194;2023-05-21T10:24:54;101135.41;;;26.73;40.85
49397;BME280;35615;41.410;2.194;2023-05-21T10:27:23;101137.28;;;27.08;40.53
49397;BME280;35615;41.410;2.194;2023-05-21T10:29:52;101139.09;;;27.04;40.85
49397;BME280;35615;41.410;2.194;2023-05-21T10:32:24;101145.03;;;26.77;41.86
49397;BME280;35615;41.410;2.194;2023-05-21T10:34:53;101146.94;;;27.10;41.09
49397;BME280;35615;41.410;2.194;2023-05-21T10:37:26;101144.75;;;27.28;41.25
49397;BME280;35615;41.410;2.194;2023-05-21T10:39:54;101147.44;;;27.62;40.64
49397;BME280;35615;41.410;2.194;2023-05-21T10:42:50;101147.78;;;27.82;40.14
49397;BME280;35615;41.410;2.194;2023-05-21T10:45:15;101148.94;;;27.36;40.81
49397;BME280;35615;41.410;2.194;2023-05-21T10:59:40;101152.69;;;26.50;43.96
49397;BME280;35615;41.410;2.194;2023-05-21T11:02:11;101153.97;;;26.71;43.63
49397;BME280;35615;41.410;2.194;2023-05-21T11:04:40;101153.66;;;26.46;43.89
49397;BME280;35615;41.410;2.194;2023-05-21T11:07:10;101155.13;;;26.59;43.86
49397;BME280;35615;41.410;2.194;2023-05-21T11:09:38;101156.91;;;26.59;43.36
49397;BME280;35615;41.410;2.194;2023-05-21T11:12:08;101159.31;;;26.26;44.10
49397;BME280;35615;41.410;2.194;2023-05-21T11:14:40;101158.97;;;26.45;44.07
49397;BME280;35615;41.410;2.194;2023-05-21T11:17:14;101151.75;;;26.53;43.61
49397;BME280;35615;41.410;2.194;2023-05-21T11:19:45;101157.13;;;26.05;44.43
49397;BME280;35615;41.410;2.194;2023-05-21T11:24:46;101161.13;;;25.78;45.04
49397;BME280;35615;41.410;2.194;2023-05-21T11:27:41;101152.97;;;25.90;45.01
49397;BME280;35615;41.410;2.194;2023-05-21T11:30:15;101155.81;;;26.24;44.18
49397;BME280;35615;41.410;2.194;2023-05-21T11:38:16;101155.44;;;25.99;44.72
49397;BME280;35615;41.410;2.194;2023-05-21T11:40:53;101146.06;;;25.83;44.22
49397;BME280;35615;41.410;2.194;2023-05-21T11:43:21;101153.25;;;25.75;45.00
49397;BME280;35615;41.410;2.194;2023-05-21T11:45:51;101155.53;;;25.95;44.27
49397;BME280;35615;41.410;2.194;2023-05-21T11:48:24;101153.03;;;25.87;43.98
49397;BME280;35615;41.410;2.194;2023-05-21T11:50:55;101162.06;;;25.75;44.63
49397;BME280;35615;41.410;2.194;2023-05-21T11:53:28;101150.50;;;25.80;44.45
49397;BME280;35615;41.410;2.194;2023-05-21T11:56:02;101145.28;;;25.76;44.43
49397;BME280;35615;41.410;2.194;2023-05-21T11:58:30;101154.25;;;25.66;45.42
49397;BME280;35615;41.410;2.194;2023-05-21T12:00:58;101146.38;;;25.63;45.40
49397;BME280;35615;41.410;2.194;2023-05-21T12:03:25;101152.94;;;25.41;45.88
49397;BME280;35615;41.410;2.194;2023-05-21T12:05:53;101148.94;;;25.68;45.83
49397;BME280;35615;41.410;2.194;2023-05-21T12:08:23;101155.84;;;25.78;45.25
49397;BME280;35615;41.410;2.194;2023-05-21T12:10:58;101158.88;;;25.54;45.86
49397;BME280;35615;41.410;2.194;2023-05-21T12:13:27;101159.41;;;25.75;45.49
49397;BME280;35615;41.410;2.194;2023-05-21T12:15:55;101161.94;;;25.29;46.65
49397;BME280;35615;41.410;2.194;2023-05-21T12:18:25;101159.59;;;25.09;46.98
49397;BME280;35615;41.410;2.194;2023-05-21T12:20:52;101167.16;;;25.34;46.78
49397;BME280;35615;41.410;2.194;2023-05-21T12:23:25;101167.16;;;25.34;46.22
49397;BME280;35615;41.410;2.194;2023-05-21T12:25:52;101157.03;;;25.59;45.51
49397;BME280;35615;41.410;2.194;2023-05-21T12:28:20;101167.25;;;25.28;45.34
49397;BME280;35615;41.410;2.194;2023-05-21T12:30:48;101164.06;;;25.61;44.68
49397;BME280;35615;41.410;2.194;2023-05-21T12:33:18;101172.44;;;25.34;44.47
49397;BME280;35615;41.410;2.194;2023-05-21T12:35:48;101177.25;;;25.09;44.56
49397;BME280;35615;41.410;2.194;2023-05-21T12:38:17;101182.69;;;24.93;44.49
49397;BME280;35615;41.410;2.194;2023-05-21T12:40:44;101172.09;;;24.97;43.69
49397;BME280;35615;41.410;2.194;2023-05-21T12:43:12;101168.81;;;24.79;43.74
49397;BME280;35615;41.410;2.194;2023-05-21T12:45:39;101172.16;;;24.92;43.19
49397;BME280;35615;41.410;2.194;2023-05-21T12:48:07;101174.16;;;24.76;43.13
49397;BME280;35615;41.410;2.194;2023-05-21T12:50:38;101182.25;;;24.64;43.17
49397;BME280;35615;41.410;2.194;2023-05-21T12:53:14;101169.81;;;24.71;42.83
49397;BME280;35615;41.410;2.194;2023-05-21T12:55:42;101176.09;;;24.62;42.14
49397;BME280;35615;41.410;2.194;2023-05-21T12:58:12;101169.88;;;24.66;42.20
49397;BME280;35615;41.410;2.194;2023-05-21T13:00:41;101174.44;;;24.53;42.77
49397;BME280;35615;41.410;2.194;2023-05-21T13:03:09;101170.59;;;24.79;41.50
49397;BME280;35615;41.410;2.194;2023-05-21T13:05:41;101177.03;;;25.23;40.54
49397;BME280;35615;41.410;2.194;2023-05-21T13:08:10;101170.41;;;24.91;40.75
49397;BME280;35615;41.410;2.194;2023-05-21T13:10:46;101185.13;;;24.44;41.60
49397;BME280;35615;41.410;2.194;2023-05-21T13:13:13;101169.47;;;24.93;41.26
49397;BME280;35615;41.410;2.194;2023-05-21T13:15:40;101177.41;;;24.97;40.78
49397;BME280;35615;41.410;2.194;2023-05-21T13:18:08;101169.59;;;24.87;40.45
49397;BME280;35615;41.410;2.194;2023-05-21T13:20:35;101174.41;;;24.56;41.78
49397;BME280;35615;41.410;2.194;2023-05-21T13:23:03;101173.16;;;24.85;40.49
49397;BME280;35615;41.410;2.194;2023-05-21T13:25:33;101173.72;;;25.08;40.33